createdAt,value
2022-11-29T00:01:04.377Z,2.63
2022-11-29T00:03:31.458Z,3.00
2022-11-29T00:06:04.936Z,2.92
2022-11-29T00:08:31.492Z,3.20
2022-11-29T00:11:03.614Z,2.60
2022-11-29T00:13:30.111Z,2.30
2022-11-29T00:16:02.252Z,1.63
2022-11-29T00:18:28.760Z,1.83
2022-11-29T00:20:55.259Z,2.35
2022-11-29T00:23:22.814Z,1.58
2022-11-29T00:25:49.380Z,1.95
2022-11-29T00:28:15.854Z,1.55
2022-11-29T00:30:44.449Z,1.70
2022-11-29T00:33:10.978Z,1.52
2022-11-29T00:35:37.498Z,1.25
2022-11-29T00:38:04.094Z,1.15
2022-11-29T00:40:30.604Z,1.13
2022-11-29T00:42:57.110Z,1.42
2022-11-29T00:45:23.591Z,1.17
2022-11-29T00:47:50.086Z,1.98
2022-11-29T00:50:16.622Z,1.60
2022-11-29T00:52:45.250Z,1.40
2022-11-29T00:55:11.724Z,1.50
2022-11-29T00:57:38.293Z,1.42
2022-11-29T01:00:05.628Z,1.48
2022-11-29T01:02:32.127Z,1.58
2022-11-29T01:04:58.669Z,1.45
2022-11-29T01:07:25.297Z,1.60
2022-11-29T01:09:51.887Z,1.73
2022-11-29T01:12:18.390Z,1.48
2022-11-29T01:14:47.435Z,1.77
2022-11-29T01:17:14.161Z,1.73
2022-11-29T01:19:44.159Z,1.52
2022-11-29T01:22:18.517Z,1.48
2022-11-29T01:24:47.082Z,1.23
2022-11-29T01:27:13.738Z,1.70
2022-11-29T01:29:40.350Z,1.48
2022-11-29T01:32:06.864Z,2.55
2022-11-29T01:34:33.431Z,1.70
2022-11-29T01:36:59.940Z,1.23
2022-11-29T01:39:26.475Z,1.67
2022-11-29T01:41:52.953Z,1.25
2022-11-29T01:44:19.386Z,1.75
2022-11-29T01:46:50.678Z,1.77
2022-11-29T01:49:32.627Z,2.13
2022-11-29T01:52:09.694Z,1.48
2022-11-29T01:54:49.452Z,1.83
2022-11-29T01:57:19.226Z,2.17
2022-11-29T01:59:50.622Z,1.77
2022-11-29T02:02:37.310Z,2.17
2022-11-29T02:05:05.028Z,1.27
2022-11-29T02:07:32.705Z,2.17
2022-11-29T02:09:59.518Z,1.80
2022-11-29T02:12:52.515Z,1.48
2022-11-29T02:15:42.001Z,1.47
2022-11-29T02:18:14.700Z,1.67
2022-11-29T02:21:05.871Z,1.48
2022-11-29T02:24:01.486Z,1.60
2022-11-29T02:26:30.662Z,1.33
2022-11-29T02:29:34.636Z,1.20
2022-11-29T02:32:22.248Z,1.50
2022-11-29T02:35:17.420Z,1.05
2022-11-29T02:38:20.460Z,1.05
2022-11-29T02:41:05.826Z,1.80
2022-11-29T02:44:09.914Z,1.80
2022-11-29T02:47:14.553Z,1.65
2022-11-29T02:49:52.869Z,1.85
2022-11-29T02:52:24.445Z,1.30
2022-11-29T02:55:01.362Z,2.08
2022-11-29T02:57:56.031Z,1.38
2022-11-29T03:00:23.777Z,1.38
2022-11-29T03:03:02.026Z,1.42
2022-11-29T03:06:04.261Z,1.50
2022-11-29T03:08:54.582Z,1.23
2022-11-29T03:11:23.641Z,1.55
2022-11-29T03:14:02.309Z,1.42
2022-11-29T03:16:43.070Z,1.50
2022-11-29T03:19:47.139Z,1.65
2022-11-29T03:22:49.036Z,1.58
2022-11-29T03:25:29.159Z,1.20
2022-11-29T03:28:11.158Z,1.73
2022-11-29T03:30:43.008Z,1.77
2022-11-29T03:33:24.863Z,1.42
2022-11-29T03:36:06.883Z,1.65
2022-11-29T03:38:41.636Z,1.75
2022-11-29T03:41:33.951Z,1.83
2022-11-29T03:44:09.850Z,1.40
2022-11-29T03:46:50.363Z,1.45
2022-11-29T03:49:29.384Z,1.92
2022-11-29T03:52:04.233Z,1.48
2022-11-29T03:55:08.108Z,1.70
2022-11-29T03:57:46.645Z,1.60
2022-11-29T04:00:14.238Z,1.67
2022-11-29T04:03:07.694Z,1.30
2022-11-29T04:05:37.618Z,1.70
2022-11-29T04:08:18.281Z,1.20
2022-11-29T04:11:05.766Z,1.52
2022-11-29T04:14:20.762Z,1.63
2022-11-29T04:17:17.364Z,1.40
2022-11-29T04:20:18.054Z,1.03
2022-11-29T04:23:22.518Z,1.88
2022-11-29T04:26:17.174Z,1.67
2022-11-29T04:29:16.165Z,1.10
2022-11-29T04:31:58.419Z,1.83
2022-11-29T04:34:46.492Z,1.45
2022-11-29T04:37:48.441Z,1.88
2022-11-29T04:40:48.473Z,1.55
2022-11-29T04:43:20.839Z,1.58
2022-11-29T04:46:18.445Z,1.92
2022-11-29T04:48:50.730Z,1.45
2022-11-29T04:51:43.483Z,1.33
2022-11-29T04:54:55.219Z,1.83
2022-11-29T04:57:30.957Z,2.07
2022-11-29T05:00:08.147Z,2.15
2022-11-29T05:03:00.007Z,1.92
2022-11-29T05:06:00.482Z,1.70
2022-11-29T05:08:50.375Z,2.17
2022-11-29T05:11:26.298Z,1.77
2022-11-29T05:14:01.972Z,1.60
2022-11-29T05:16:36.113Z,1.30
2022-11-29T05:19:30.971Z,1.30
2022-11-29T05:22:32.995Z,2.10
2022-11-29T05:25:22.210Z,1.80
2022-11-29T05:28:24.602Z,1.53
2022-11-29T05:31:03.832Z,1.20
2022-11-29T05:33:56.625Z,1.70
2022-11-29T05:36:44.968Z,3.38
2022-11-29T05:39:39.531Z,1.95
2022-11-29T05:42:40.195Z,1.90
2022-11-29T05:45:21.060Z,1.70
2022-11-29T05:48:09.880Z,1.33
2022-11-29T05:50:41.894Z,1.48
2022-11-29T05:53:36.723Z,1.75
2022-11-29T05:56:12.587Z,1.17
2022-11-29T05:58:55.945Z,2.38
2022-11-29T06:01:32.086Z,1.45
2022-11-29T06:04:33.220Z,1.92
2022-11-29T06:07:26.256Z,1.50
2022-11-29T06:10:00.495Z,1.63
2022-11-29T06:12:32.416Z,1.35
2022-11-29T06:15:15.290Z,2.33
2022-11-29T06:18:23.651Z,3.17
2022-11-29T06:21:14.734Z,3.17
2022-11-29T06:23:57.559Z,2.53
2022-11-29T06:26:38.113Z,1.90
2022-11-29T06:29:14.125Z,2.17
2022-11-29T06:31:45.467Z,1.25
2022-11-29T06:34:33.108Z,5.30
2022-11-29T06:37:21.327Z,5.30
2022-11-29T06:39:48.141Z,3.37
2022-11-29T06:42:14.647Z,3.60
2022-11-29T06:44:41.416Z,3.38
2022-11-29T06:47:15.284Z,3.55
2022-11-29T06:49:51.261Z,3.17
2022-11-29T06:52:32.216Z,2.25
2022-11-29T06:55:26.857Z,2.47
2022-11-29T06:58:36.030Z,1.80
2022-11-29T07:01:22.496Z,1.67
2022-11-29T07:04:24.325Z,1.50
2022-11-29T07:06:51.170Z,1.65
2022-11-29T07:09:20.593Z,1.42
2022-11-29T07:11:47.870Z,1.60
2022-11-29T07:14:14.851Z,1.17
2022-11-29T07:16:57.008Z,0.90
2022-11-29T07:19:32.886Z,1.55
2022-11-29T07:22:13.322Z,1.73
2022-11-29T07:25:21.170Z,4.70
2022-11-29T07:28:02.967Z,6.38
2022-11-29T07:31:07.584Z,6.90
2022-11-29T07:33:37.645Z,6.75
2022-11-29T07:36:28.998Z,6.60
2022-11-29T07:39:07.608Z,4.60
2022-11-29T07:42:03.843Z,3.33
2022-11-29T07:44:35.625Z,3.90
2022-11-29T07:47:05.162Z,3.88
2022-11-29T07:49:32.718Z,4.05
2022-11-29T07:51:59.318Z,3.23
2022-11-29T07:54:25.967Z,3.17
2022-11-29T07:56:52.702Z,4.05
2022-11-29T07:59:20.089Z,3.65
2022-11-29T08:01:46.634Z,2.95
2022-11-29T08:04:14.033Z,2.97
2022-11-29T08:06:43.490Z,3.08
2022-11-29T08:09:09.985Z,2.63
2022-11-29T08:11:36.474Z,3.55
2022-11-29T08:14:04.462Z,2.40
2022-11-29T08:16:35.072Z,3.00
2022-11-29T08:19:03.117Z,3.15
2022-11-29T08:21:31.480Z,2.55
2022-11-29T08:23:58.087Z,3.35
2022-11-29T08:26:29.851Z,2.45
2022-11-29T08:28:58.352Z,2.88
2022-11-29T08:31:24.929Z,2.85
2022-11-29T08:33:51.519Z,2.17
2022-11-29T08:36:19.995Z,3.03
2022-11-29T08:38:48.030Z,2.70
2022-11-29T08:41:16.364Z,2.90
2022-11-29T08:43:43.660Z,3.45
2022-11-29T08:46:15.282Z,3.00
2022-11-29T08:48:46.840Z,3.08
2022-11-29T08:51:13.958Z,3.72
2022-11-29T08:53:44.695Z,3.03
2022-11-29T08:56:59.698Z,2.65
2022-11-29T08:59:02.664Z,2.50
2022-11-29T09:01:29.678Z,1.88
2022-11-29T09:04:01.224Z,2.78
2022-11-29T09:06:38.991Z,2.50
2022-11-29T09:09:06.476Z,2.17
2022-11-29T09:11:34.634Z,3.35
2022-11-29T09:14:06.704Z,2.22
2022-11-29T09:16:36.224Z,2.90
2022-11-29T09:19:03.871Z,2.38
2022-11-29T09:21:36.742Z,2.53
2022-11-29T09:24:06.621Z,2.70
2022-11-29T09:26:36.815Z,2.55
2022-11-29T09:29:05.337Z,2.63
2022-11-29T09:31:35.595Z,2.38
2022-11-29T09:34:05.227Z,2.60
2022-11-29T09:36:34.661Z,2.75
2022-11-29T09:39:04.695Z,3.05
2022-11-29T09:42:13.384Z,2.55
2022-11-29T09:45:04.144Z,2.97
2022-11-29T09:47:49.472Z,4.30
2022-11-29T09:50:33.275Z,2.45
2022-11-29T09:53:14.893Z,3.55
2022-11-29T09:56:03.205Z,2.78
2022-11-29T09:58:38.180Z,3.20
2022-11-29T10:01:10.715Z,3.55
2022-11-29T10:03:44.983Z,2.90
2022-11-29T10:06:17.512Z,3.40
2022-11-29T10:08:50.014Z,3.30
2022-11-29T10:11:25.211Z,3.88
2022-11-29T10:13:56.411Z,4.60
2022-11-29T10:16:51.480Z,3.85
2022-11-29T10:19:33.326Z,3.05
2022-11-29T10:22:08.170Z,2.50
2022-11-29T10:24:35.789Z,3.05
2022-11-29T10:27:08.319Z,2.88
2022-11-29T10:29:34.908Z,3.05
2022-11-29T10:32:13.898Z,4.53
2022-11-29T10:34:42.499Z,5.70
2022-11-29T10:37:16.671Z,3.00
2022-11-29T10:40:20.761Z,3.40
2022-11-29T10:42:52.377Z,2.70
2022-11-29T10:45:44.204Z,2.78
2022-11-29T10:48:15.849Z,2.63
2022-11-29T10:50:45.697Z,2.88
2022-11-29T10:53:36.806Z,2.58
2022-11-29T10:56:24.360Z,3.58
2022-11-29T10:59:04.405Z,3.08
2022-11-29T11:01:42.324Z,3.22
2022-11-29T11:04:22.505Z,3.25
2022-11-29T11:06:56.414Z,3.20
2022-11-29T11:09:34.775Z,2.65
2022-11-29T11:12:16.057Z,3.35
2022-11-29T11:14:44.614Z,3.53
2022-11-29T11:17:34.423Z,2.70
2022-11-29T11:20:22.779Z,3.75
2022-11-29T11:23:04.649Z,3.30
2022-11-29T11:25:39.869Z,4.15
2022-11-29T11:28:53.164Z,3.25
2022-11-29T11:31:35.838Z,2.60
2022-11-29T11:34:25.124Z,3.08
2022-11-29T11:36:52.238Z,3.13
2022-11-29T11:39:23.924Z,2.55
2022-11-29T11:42:10.233Z,2.35
2022-11-29T11:44:52.491Z,2.83
2022-11-29T11:47:32.813Z,2.40
2022-11-29T11:50:14.772Z,2.22
2022-11-29T11:52:54.341Z,1.75
2022-11-29T11:55:43.672Z,2.75
2022-11-29T11:58:13.231Z,1.92
2022-11-29T12:01:03.903Z,1.88
2022-11-29T12:03:49.568Z,1.67
2022-11-29T12:06:38.095Z,2.08
2022-11-29T12:09:25.468Z,1.45
2022-11-29T12:12:01.983Z,2.15
2022-11-29T12:14:34.041Z,2.25
2022-11-29T12:17:18.464Z,1.85
2022-11-29T12:20:10.222Z,2.00
2022-11-29T12:23:03.954Z,2.03
2022-11-29T12:25:43.230Z,2.00
2022-11-29T12:28:20.238Z,1.70
2022-11-29T12:31:14.821Z,2.28
2022-11-29T12:34:04.127Z,1.80
2022-11-29T12:36:47.387Z,1.92
2022-11-29T12:39:32.299Z,1.52
2022-11-29T12:42:03.334Z,2.33
2022-11-29T12:44:58.735Z,1.88
2022-11-29T12:47:51.691Z,1.90
2022-11-29T12:50:37.213Z,1.83
2022-11-29T12:53:27.729Z,1.75
2022-11-29T12:56:02.699Z,1.52
2022-11-29T12:59:06.151Z,1.50
2022-11-29T13:02:04.922Z,1.52
2022-11-29T13:04:52.726Z,1.63
2022-11-29T13:07:57.132Z,1.80
2022-11-29T13:10:26.607Z,1.00
2022-11-29T13:12:58.471Z,1.88
2022-11-29T13:15:44.781Z,1.30
2022-11-29T13:18:48.459Z,1.52
2022-11-29T13:21:49.969Z,1.45
2022-11-29T13:24:24.601Z,1.92
2022-11-29T13:26:52.842Z,1.80
2022-11-29T13:29:20.661Z,1.98
2022-11-29T13:31:48.875Z,1.50
2022-11-29T13:34:40.026Z,2.13
2022-11-29T13:37:35.385Z,2.05
2022-11-29T13:40:28.861Z,1.65
2022-11-29T13:43:10.714Z,1.55
2022-11-29T13:45:41.625Z,2.03
2022-11-29T13:48:49.775Z,1.30
2022-11-29T13:51:28.168Z,1.65
2022-11-29T13:53:56.835Z,1.42
2022-11-29T13:56:46.707Z,1.63
2022-11-29T13:59:36.176Z,1.48
2022-11-29T14:02:07.100Z,3.35
2022-11-29T14:04:37.615Z,2.05
2022-11-29T14:07:11.281Z,2.42
2022-11-29T14:09:50.038Z,1.63
2022-11-29T14:12:39.337Z,1.35
2022-11-29T14:15:11.415Z,1.58
2022-11-29T14:17:51.698Z,1.75
2022-11-29T14:20:24.945Z,1.45
2022-11-29T14:23:06.596Z,1.83
2022-11-29T14:25:55.236Z,1.83
2022-11-29T14:28:21.734Z,1.70
2022-11-29T14:31:02.321Z,1.70
2022-11-29T14:33:51.692Z,2.60
2022-11-29T14:36:40.820Z,1.70
2022-11-29T14:39:38.229Z,1.83
2022-11-29T14:42:18.617Z,1.80
2022-11-29T14:44:58.465Z,2.35
2022-11-29T14:47:31.477Z,2.70
2022-11-29T14:50:08.917Z,2.50
2022-11-29T14:52:38.146Z,3.00
2022-11-29T14:55:16.809Z,2.25
2022-11-29T14:58:01.884Z,3.35
2022-11-29T15:00:54.131Z,3.40
2022-11-29T15:03:36.496Z,2.67
2022-11-29T15:06:06.086Z,2.47
2022-11-29T15:08:54.862Z,3.00
2022-11-29T15:11:56.358Z,2.95
2022-11-29T15:14:41.043Z,3.92
2022-11-29T15:17:25.355Z,2.80
2022-11-29T15:20:00.863Z,4.43
2022-11-29T15:22:36.855Z,3.47
2022-11-29T15:25:12.263Z,3.58
2022-11-29T15:27:52.077Z,3.25
2022-11-29T15:30:31.830Z,3.65
2022-11-29T15:33:00.936Z,3.72
2022-11-29T15:35:28.389Z,2.90
2022-11-29T15:37:55.512Z,3.03
2022-11-29T15:40:35.117Z,3.28
2022-11-29T15:43:16.312Z,3.33
2022-11-29T15:45:51.107Z,3.95
2022-11-29T15:48:21.220Z,3.35
2022-11-29T15:50:53.569Z,4.20
2022-11-29T15:53:29.324Z,3.00
2022-11-29T15:55:58.283Z,3.47
2022-11-29T15:58:28.285Z,3.35
2022-11-29T16:00:55.198Z,3.63
2022-11-29T16:03:26.744Z,3.42
2022-11-29T16:06:04.980Z,4.20
2022-11-29T16:08:36.810Z,4.32
2022-11-29T16:11:06.205Z,4.68
2022-11-29T16:13:39.464Z,3.80
2022-11-29T16:16:17.827Z,3.75
2022-11-29T16:18:46.727Z,3.40
2022-11-29T16:21:31.284Z,3.03
2022-11-29T16:23:58.902Z,2.60
2022-11-29T16:26:35.610Z,3.33
2022-11-29T16:29:05.828Z,2.92
2022-11-29T16:31:37.859Z,2.20
2022-11-29T16:34:19.858Z,2.78
2022-11-29T16:36:46.706Z,2.20
2022-11-29T16:39:23.937Z,2.35
2022-11-29T16:42:20.605Z,2.88
2022-11-29T16:45:36.155Z,2.60
2022-11-29T16:48:15.302Z,2.35
2022-11-29T16:50:49.945Z,1.92
2022-11-29T16:53:51.783Z,2.63
2022-11-29T16:56:26.807Z,2.70
2022-11-29T16:59:20.606Z,2.92
2022-11-29T17:01:47.929Z,2.70
2022-11-29T17:04:23.382Z,2.20
2022-11-29T17:06:51.652Z,2.47
2022-11-29T17:09:31.029Z,2.55
2022-11-29T17:12:01.120Z,2.08
2022-11-29T17:14:30.161Z,3.10
2022-11-29T17:17:05.649Z,3.88
2022-11-29T17:19:34.677Z,5.00
2022-11-29T17:22:01.335Z,4.00
2022-11-29T17:24:27.933Z,3.00
2022-11-29T17:26:54.448Z,3.47
2022-11-29T17:29:21.067Z,3.90
2022-11-29T17:31:50.373Z,2.92
2022-11-29T17:34:17.723Z,2.42
2022-11-29T17:36:45.221Z,2.88
2022-11-29T17:39:12.002Z,2.73
2022-11-29T17:41:45.616Z,3.45
2022-11-29T17:44:12.207Z,2.92
2022-11-29T17:46:39.127Z,3.47
2022-11-29T17:49:08.533Z,4.13
2022-11-29T17:51:51.591Z,3.90
2022-11-29T17:54:19.444Z,3.47
2022-11-29T17:56:52.761Z,2.90
2022-11-29T17:59:19.448Z,3.72
2022-11-29T18:01:47.381Z,4.60
2022-11-29T18:04:14.438Z,4.07
2022-11-29T18:06:41.513Z,4.47
2022-11-29T18:09:10.550Z,4.65
2022-11-29T18:11:46.900Z,3.38
2022-11-29T18:14:17.176Z,3.47
2022-11-29T18:16:45.499Z,3.35
2022-11-29T18:19:14.793Z,3.47
2022-11-29T18:21:41.364Z,4.07
2022-11-29T18:24:08.440Z,3.78
2022-11-29T18:26:36.583Z,3.13
2022-11-29T18:29:05.557Z,3.15
2022-11-29T18:31:35.659Z,4.40
2022-11-29T18:34:07.099Z,9.27
2022-11-29T18:36:40.152Z,5.03
2022-11-29T18:39:09.414Z,5.75
2022-11-29T18:41:40.837Z,4.25
2022-11-29T18:44:10.906Z,5.30
2022-11-29T18:46:38.822Z,4.22
2022-11-29T18:49:10.307Z,3.85
2022-11-29T18:51:38.647Z,5.30
2022-11-29T18:54:08.170Z,6.22
2022-11-29T18:56:45.686Z,4.78
2022-11-29T18:59:16.871Z,5.45
2022-11-29T19:01:45.910Z,6.57
2022-11-29T19:04:15.255Z,4.80
2022-11-29T19:06:43.148Z,4.15
2022-11-29T19:09:18.170Z,11.52
2022-11-29T19:11:44.714Z,6.67
2022-11-29T19:14:12.746Z,6.90
2022-11-29T19:16:44.076Z,10.68
2022-11-29T19:19:11.600Z,7.13
2022-11-29T19:21:39.933Z,7.78
2022-11-29T19:24:13.742Z,8.00
2022-11-29T19:26:42.958Z,5.67
2022-11-29T19:29:09.770Z,5.30
2022-11-29T19:31:39.250Z,6.43
2022-11-29T19:34:08.871Z,4.88
2022-11-29T19:36:43.676Z,4.60
2022-11-29T19:39:13.239Z,4.47
2022-11-29T19:41:42.376Z,3.83
2022-11-29T19:44:09.149Z,3.80
2022-11-29T19:46:44.573Z,4.80
2022-11-29T19:49:11.884Z,4.40
2022-11-29T19:51:38.701Z,4.75
2022-11-29T19:54:12.002Z,4.40
2022-11-29T19:56:43.255Z,5.75
2022-11-29T19:59:09.768Z,5.90
2022-11-29T20:01:42.013Z,5.50
2022-11-29T20:04:11.506Z,7.35
2022-11-29T20:06:38.477Z,7.60
2022-11-29T20:09:07.432Z,6.75
2022-11-29T20:11:34.005Z,5.80
2022-11-29T20:14:02.378Z,5.07
2022-11-29T20:16:30.517Z,4.32
2022-11-29T20:18:58.350Z,3.80
2022-11-29T20:21:27.595Z,4.55
2022-11-29T20:23:58.406Z,4.35
2022-11-29T20:26:25.894Z,5.45
2022-11-29T20:28:52.621Z,6.20
2022-11-29T20:31:22.627Z,5.05
2022-11-29T20:33:51.131Z,4.80
2022-11-29T20:36:49.017Z,5.40
2022-11-29T20:39:28.696Z,5.68
2022-11-29T20:42:13.128Z,6.28
2022-11-29T20:44:47.470Z,5.78
2022-11-29T20:47:19.470Z,5.88
2022-11-29T20:49:46.846Z,5.00
2022-11-29T20:52:39.400Z,5.72
2022-11-29T20:55:08.567Z,6.55
2022-11-29T20:57:38.222Z,6.57
2022-11-29T21:00:14.266Z,6.37
2022-11-29T21:02:40.881Z,5.70
2022-11-29T21:05:10.418Z,5.78
2022-11-29T21:07:37.973Z,5.30
2022-11-29T21:10:08.070Z,6.00
2022-11-29T21:12:37.518Z,4.65
2022-11-29T21:15:07.322Z,5.85
2022-11-29T21:17:34.225Z,5.43
2022-11-29T21:20:03.171Z,5.25
2022-11-29T21:22:48.121Z,5.63
2022-11-29T21:25:30.299Z,5.32
2022-11-29T21:28:00.361Z,6.10
2022-11-29T21:30:27.220Z,4.75
2022-11-29T21:32:54.199Z,5.30
2022-11-29T21:35:20.963Z,5.00
2022-11-29T21:37:47.688Z,6.03
2022-11-29T21:40:15.230Z,6.63
2022-11-29T21:42:41.828Z,7.90
2022-11-29T21:45:14.907Z,6.28
2022-11-29T21:47:43.198Z,5.78
2022-11-29T21:50:11.046Z,6.82
2022-11-29T21:52:41.054Z,6.25
2022-11-29T21:55:09.780Z,7.50
2022-11-29T21:57:37.332Z,5.63
2022-11-29T22:00:05.744Z,5.55
2022-11-29T22:02:32.580Z,6.10
2022-11-29T22:04:59.284Z,5.70
2022-11-29T22:07:26.066Z,5.68
2022-11-29T22:09:52.906Z,5.80
2022-11-29T22:12:33.680Z,6.13
2022-11-29T22:15:01.720Z,5.78
2022-11-29T22:17:28.461Z,5.87
2022-11-29T22:19:55.203Z,5.85
2022-11-29T22:22:21.995Z,6.50
2022-11-29T22:24:48.998Z,6.05
2022-11-29T22:27:18.648Z,5.18
2022-11-29T22:29:45.531Z,5.77
2022-11-29T22:32:12.077Z,5.47
2022-11-29T22:34:40.692Z,5.33
2022-11-29T22:37:07.315Z,5.97
2022-11-29T22:39:33.793Z,5.50
2022-11-29T22:42:00.293Z,5.80
2022-11-29T22:44:26.784Z,6.20
2022-11-29T22:46:53.482Z,5.30
2022-11-29T22:49:20.068Z,5.40
2022-11-29T22:51:46.984Z,6.40
2022-11-29T22:54:16.349Z,5.80
2022-11-29T22:56:44.109Z,6.90
2022-11-29T22:59:14.220Z,6.03
2022-11-29T23:01:43.626Z,6.17
2022-11-29T23:04:15.782Z,5.47
2022-11-29T23:06:46.204Z,6.37
2022-11-29T23:09:21.064Z,6.17
2022-11-29T23:11:52.710Z,5.00
2022-11-29T23:14:20.269Z,6.47
2022-11-29T23:16:47.056Z,6.27
2022-11-29T23:19:16.697Z,6.10
2022-11-29T23:21:46.517Z,6.13
2022-11-29T23:24:16.250Z,6.37
2022-11-29T23:26:47.645Z,6.43
2022-11-29T23:29:19.360Z,7.45
2022-11-29T23:31:47.010Z,6.27
2022-11-29T23:34:16.587Z,6.03
2022-11-29T23:36:51.347Z,6.07
2022-11-29T23:39:19.519Z,6.70
2022-11-29T23:41:46.011Z,6.07
2022-11-29T23:44:14.839Z,6.57
2022-11-29T23:46:41.334Z,6.22
2022-11-29T23:49:07.820Z,7.30
2022-11-29T23:51:34.319Z,6.50
2022-11-29T23:54:00.818Z,7.18
2022-11-29T23:56:27.455Z,7.57
2022-11-29T23:58:53.991Z,6.35
